AYMH

Mount Hagen Kagamuga Airport

Mount Hagen, Papua New Guinea
METAR AYMH 280000Z VRB04KT 9999 SCT035 SCT150 20/16 Q1019
Observed Flight Rules
May-28 @ 00:00 UTC (an hour ago) Visual Flight Rules
Wind Visibility Clouds
Variable at 4 knots 10,000+ meters
  • Scattered at 3,500' AGL
  • Scattered at 15,000' AGL
Temperatures Readings
Current 20°C / 68°F
Dewpoint 16°C / 61°F
Humidity 78%
Altimeter 30.09" Hg
Pressure 1019 hPa
Elevation 1642
METAR AYMH 280000Z VRB04KT 9999 SCT035 SCT150 20/16 Q1019
Observed Flight Rules
May-28 @ 00:00 UTC
(an hour ago)
VFR
Wind Visibility
Variable at 4 knots 10,000+ meters
Clouds
  • Scattered at 3,500' AGL
  • Scattered at 15,000' AGL
Temperature Dewpoint
20°C / 68°F 16°C / 61°F
Humidity Altimeter Pressure
78% 30.09" Hg 1019 hPa